sensor_id;sensor_type;location;lat;lon;timestamp;P1;durP1;ratioP1;P2;durP2;ratioP2
22240;SDS011;11289;52.524;13.694;2022-12-07T00:01:05;7.70;;;4.45;;
22240;SDS011;11289;52.524;13.694;2022-12-07T00:03:32;7.80;;;4.50;;
22240;SDS011;11289;52.524;13.694;2022-12-07T00:05:58;9.88;;;5.70;;
22240;SDS011;11289;52.524;13.694;2022-12-07T00:08:23;10.30;;;5.63;;
22240;SDS011;11289;52.524;13.694;2022-12-07T00:10:49;11.43;;;6.80;;
22240;SDS011;11289;52.524;13.694;2022-12-07T00:13:14;16.77;;;9.00;;
22240;SDS011;11289;52.524;13.694;2022-12-07T00:15:40;16.13;;;8.48;;
22240;SDS011;11289;52.524;13.694;2022-12-07T00:18:05;14.45;;;8.85;;
22240;SDS011;11289;52.524;13.694;2022-12-07T00:20:30;15.43;;;9.20;;
22240;SDS011;11289;52.524;13.694;2022-12-07T00:22:56;17.92;;;10.70;;
22240;SDS011;11289;52.524;13.694;2022-12-07T00:25:21;15.60;;;9.25;;
22240;SDS011;11289;52.524;13.694;2022-12-07T00:27:47;16.98;;;9.20;;
22240;SDS011;11289;52.524;13.694;2022-12-07T00:30:12;19.52;;;9.15;;
22240;SDS011;11289;52.524;13.694;2022-12-07T00:32:38;18.17;;;8.85;;
22240;SDS011;11289;52.524;13.694;2022-12-07T00:35:03;17.65;;;9.05;;
22240;SDS011;11289;52.524;13.694;2022-12-07T00:37:29;13.32;;;7.57;;
22240;SDS011;11289;52.524;13.694;2022-12-07T00:39:54;14.60;;;8.30;;
22240;SDS011;11289;52.524;13.694;2022-12-07T00:42:20;16.40;;;8.60;;
22240;SDS011;11289;52.524;13.694;2022-12-07T00:44:45;18.85;;;9.35;;
22240;SDS011;11289;52.524;13.694;2022-12-07T00:47:10;14.05;;;7.93;;
22240;SDS011;11289;52.524;13.694;2022-12-07T00:49:36;15.07;;;8.57;;
22240;SDS011;11289;52.524;13.694;2022-12-07T00:52:01;14.55;;;7.90;;
22240;SDS011;11289;52.524;13.694;2022-12-07T00:54:27;16.77;;;8.02;;
22240;SDS011;11289;52.524;13.694;2022-12-07T00:56:52;16.55;;;8.48;;
22240;SDS011;11289;52.524;13.694;2022-12-07T00:59:18;14.25;;;8.63;;
22240;SDS011;11289;52.524;13.694;2022-12-07T01:01:43;14.50;;;7.60;;
22240;SDS011;11289;52.524;13.694;2022-12-07T01:04:08;16.65;;;8.60;;
22240;SDS011;11289;52.524;13.694;2022-12-07T01:06:34;14.48;;;8.10;;
22240;SDS011;11289;52.524;13.694;2022-12-07T01:08:59;14.00;;;8.32;;
22240;SDS011;11289;52.524;13.694;2022-12-07T01:11:27;15.18;;;8.55;;
22240;SDS011;11289;52.524;13.694;2022-12-07T01:13:55;13.90;;;8.07;;
22240;SDS011;11289;52.524;13.694;2022-12-07T01:16:22;17.70;;;8.32;;
22240;SDS011;11289;52.524;13.694;2022-12-07T01:18:50;15.75;;;8.43;;
22240;SDS011;11289;52.524;13.694;2022-12-07T01:21:21;14.63;;;8.23;;
22240;SDS011;11289;52.524;13.694;2022-12-07T01:23:51;16.13;;;8.32;;
22240;SDS011;11289;52.524;13.694;2022-12-07T01:26:18;14.50;;;8.02;;
22240;SDS011;11289;52.524;13.694;2022-12-07T01:28:45;12.63;;;8.23;;
22240;SDS011;11289;52.524;13.694;2022-12-07T01:31:18;13.80;;;7.57;;
22240;SDS011;11289;52.524;13.694;2022-12-07T01:33:46;13.82;;;8.13;;
22240;SDS011;11289;52.524;13.694;2022-12-07T01:36:15;12.63;;;7.60;;
22240;SDS011;11289;52.524;13.694;2022-12-07T01:38:51;13.75;;;7.72;;
22240;SDS011;11289;52.524;13.694;2022-12-07T01:41:21;13.32;;;7.43;;
22240;SDS011;11289;52.524;13.694;2022-12-07T01:44:08;11.75;;;7.47;;
22240;SDS011;11289;52.524;13.694;2022-12-07T01:52:08;12.20;;;7.13;;
22240;SDS011;11289;52.524;13.694;2022-12-07T01:54:39;11.77;;;7.18;;
22240;SDS011;11289;52.524;13.694;2022-12-07T01:57:06;12.48;;;8.18;;
22240;SDS011;11289;52.524;13.694;2022-12-07T01:59:33;13.35;;;7.93;;
22240;SDS011;11289;52.524;13.694;2022-12-07T02:01:58;13.38;;;7.75;;
22240;SDS011;11289;52.524;13.694;2022-12-07T02:04:29;12.05;;;7.30;;
22240;SDS011;11289;52.524;13.694;2022-12-07T02:06:54;14.00;;;7.85;;
22240;SDS011;11289;52.524;13.694;2022-12-07T02:09:20;13.85;;;7.82;;
22240;SDS011;11289;52.524;13.694;2022-12-07T02:11:45;11.98;;;7.32;;
22240;SDS011;11289;52.524;13.694;2022-12-07T02:14:11;13.43;;;7.80;;
22240;SDS011;11289;52.524;13.694;2022-12-07T02:23:12;11.75;;;6.25;;
22240;SDS011;11289;52.524;13.694;2022-12-07T02:31:39;13.88;;;7.30;;
22240;SDS011;11289;52.524;13.694;2022-12-07T02:37:09;13.00;;;7.57;;
22240;SDS011;11289;52.524;13.694;2022-12-07T02:39:43;13.82;;;8.32;;
22240;SDS011;11289;52.524;13.694;2022-12-07T02:42:17;12.80;;;7.75;;
22240;SDS011;11289;52.524;13.694;2022-12-07T02:44:48;13.02;;;7.82;;
22240;SDS011;11289;52.524;13.694;2022-12-07T02:47:16;12.75;;;7.88;;
22240;SDS011;11289;52.524;13.694;2022-12-07T02:49:45;13.25;;;7.20;;
22240;SDS011;11289;52.524;13.694;2022-12-07T02:52:11;14.88;;;8.18;;
22240;SDS011;11289;52.524;13.694;2022-12-07T02:54:36;13.05;;;7.78;;
22240;SDS011;11289;52.524;13.694;2022-12-07T03:02:38;11.20;;;7.45;;
22240;SDS011;11289;52.524;13.694;2022-12-07T03:10:54;11.68;;;6.82;;
22240;SDS011;11289;52.524;13.694;2022-12-07T03:18:29;10.10;;;6.15;;
22240;SDS011;11289;52.524;13.694;2022-12-07T03:20:59;8.60;;;5.63;;
22240;SDS011;11289;52.524;13.694;2022-12-07T03:23:29;8.93;;;5.63;;
22240;SDS011;11289;52.524;13.694;2022-12-07T03:25:59;10.05;;;6.35;;
22240;SDS011;11289;52.524;13.694;2022-12-07T03:28:26;10.70;;;5.97;;
22240;SDS011;11289;52.524;13.694;2022-12-07T03:33:34;9.25;;;6.25;;
22240;SDS011;11289;52.524;13.694;2022-12-07T03:36:30;8.70;;;5.80;;
22240;SDS011;11289;52.524;13.694;2022-12-07T03:41:38;11.52;;;6.07;;
22240;SDS011;11289;52.524;13.694;2022-12-07T03:44:04;10.70;;;6.05;;
22240;SDS011;11289;52.524;13.694;2022-12-07T03:46:34;9.00;;;5.85;;
22240;SDS011;11289;52.524;13.694;2022-12-07T03:52:00;8.27;;;5.43;;
22240;SDS011;11289;52.524;13.694;2022-12-07T03:54:41;8.60;;;5.97;;
22240;SDS011;11289;52.524;13.694;2022-12-07T03:57:14;8.88;;;5.95;;
22240;SDS011;11289;52.524;13.694;2022-12-07T03:59:41;10.10;;;6.28;;
22240;SDS011;11289;52.524;13.694;2022-12-07T04:02:08;10.90;;;6.30;;
22240;SDS011;11289;52.524;13.694;2022-12-07T04:04:38;12.05;;;7.32;;
22240;SDS011;11289;52.524;13.694;2022-12-07T04:07:04;11.82;;;6.28;;
22240;SDS011;11289;52.524;13.694;2022-12-07T04:09:29;11.20;;;6.40;;
22240;SDS011;11289;52.524;13.694;2022-12-07T04:11:55;10.50;;;6.72;;
22240;SDS011;11289;52.524;13.694;2022-12-07T04:14:20;10.40;;;6.47;;
22240;SDS011;11289;52.524;13.694;2022-12-07T04:19:12;12.07;;;6.75;;
22240;SDS011;11289;52.524;13.694;2022-12-07T04:21:38;10.93;;;6.45;;
22240;SDS011;11289;52.524;13.694;2022-12-07T04:24:16;11.27;;;7.38;;
22240;SDS011;11289;52.524;13.694;2022-12-07T04:26:43;10.98;;;7.07;;
22240;SDS011;11289;52.524;13.694;2022-12-07T04:29:10;11.00;;;6.45;;
22240;SDS011;11289;52.524;13.694;2022-12-07T04:31:37;11.02;;;5.60;;
22240;SDS011;11289;52.524;13.694;2022-12-07T04:34:03;13.10;;;6.00;;
22240;SDS011;11289;52.524;13.694;2022-12-07T04:36:30;12.02;;;5.95;;
22240;SDS011;11289;52.524;13.694;2022-12-07T04:38:56;16.30;;;6.25;;
22240;SDS011;11289;52.524;13.694;2022-12-07T04:41:22;11.88;;;7.07;;
22240;SDS011;11289;52.524;13.694;2022-12-07T04:43:55;14.60;;;6.60;;
22240;SDS011;11289;52.524;13.694;2022-12-07T04:46:28;13.80;;;6.65;;
22240;SDS011;11289;52.524;13.694;2022-12-07T04:48:56;13.13;;;6.85;;
22240;SDS011;11289;52.524;13.694;2022-12-07T04:51:23;14.85;;;7.40;;
22240;SDS011;11289;52.524;13.694;2022-12-07T04:53:50;13.48;;;6.13;;
22240;SDS011;11289;52.524;13.694;2022-12-07T04:56:16;12.45;;;6.60;;
22240;SDS011;11289;52.524;13.694;2022-12-07T04:58:43;13.52;;;7.18;;
22240;SDS011;11289;52.524;13.694;2022-12-07T05:01:10;15.85;;;8.32;;
22240;SDS011;11289;52.524;13.694;2022-12-07T05:03:36;15.70;;;8.65;;
22240;SDS011;11289;52.524;13.694;2022-12-07T05:06:02;14.60;;;8.60;;
22240;SDS011;11289;52.524;13.694;2022-12-07T05:08:28;18.17;;;9.93;;
22240;SDS011;11289;52.524;13.694;2022-12-07T05:10:53;18.52;;;9.82;;
22240;SDS011;11289;52.524;13.694;2022-12-07T05:13:18;17.33;;;8.60;;
22240;SDS011;11289;52.524;13.694;2022-12-07T05:15:44;16.88;;;9.70;;
22240;SDS011;11289;52.524;13.694;2022-12-07T05:18:10;17.67;;;9.57;;
22240;SDS011;11289;52.524;13.694;2022-12-07T05:20:37;17.75;;;9.75;;
22240;SDS011;11289;52.524;13.694;2022-12-07T05:23:03;20.65;;;10.80;;
22240;SDS011;11289;52.524;13.694;2022-12-07T05:25:29;18.23;;;9.55;;
22240;SDS011;11289;52.524;13.694;2022-12-07T05:27:55;19.88;;;10.13;;
22240;SDS011;11289;52.524;13.694;2022-12-07T05:30:21;17.42;;;10.05;;
22240;SDS011;11289;52.524;13.694;2022-12-07T05:32:47;19.50;;;10.48;;
22240;SDS011;11289;52.524;13.694;2022-12-07T05:35:12;17.38;;;10.05;;
22240;SDS011;11289;52.524;13.694;2022-12-07T05:37:38;22.23;;;10.68;;
22240;SDS011;11289;52.524;13.694;2022-12-07T05:40:04;24.83;;;12.65;;
22240;SDS011;11289;52.524;13.694;2022-12-07T05:42:31;22.55;;;12.30;;
22240;SDS011;11289;52.524;13.694;2022-12-07T05:44:56;17.83;;;10.45;;
22240;SDS011;11289;52.524;13.694;2022-12-07T05:47:21;21.63;;;11.48;;
22240;SDS011;11289;52.524;13.694;2022-12-07T05:49:47;21.95;;;11.18;;
22240;SDS011;11289;52.524;13.694;2022-12-07T05:52:12;20.52;;;11.48;;
22240;SDS011;11289;52.524;13.694;2022-12-07T05:54:37;26.75;;;13.40;;
22240;SDS011;11289;52.524;13.694;2022-12-07T05:57:03;22.42;;;11.93;;
22240;SDS011;11289;52.524;13.694;2022-12-07T05:59:28;25.80;;;12.93;;
22240;SDS011;11289;52.524;13.694;2022-12-07T06:04:24;25.13;;;13.55;;
22240;SDS011;11289;52.524;13.694;2022-12-07T06:06:52;25.88;;;13.07;;
22240;SDS011;11289;52.524;13.694;2022-12-07T06:09:18;26.92;;;14.43;;
22240;SDS011;11289;52.524;13.694;2022-12-07T06:11:44;23.95;;;13.48;;
22240;SDS011;11289;52.524;13.694;2022-12-07T06:14:29;27.17;;;14.80;;
22240;SDS011;11289;52.524;13.694;2022-12-07T06:16:54;23.88;;;12.85;;
22240;SDS011;11289;52.524;13.694;2022-12-07T06:19:19;24.48;;;12.77;;
22240;SDS011;11289;52.524;13.694;2022-12-07T06:21:45;26.45;;;14.65;;
22240;SDS011;11289;52.524;13.694;2022-12-07T06:24:13;29.20;;;14.25;;
22240;SDS011;11289;52.524;13.694;2022-12-07T06:26:40;27.75;;;14.18;;
22240;SDS011;11289;52.524;13.694;2022-12-07T06:29:06;29.88;;;13.85;;
22240;SDS011;11289;52.524;13.694;2022-12-07T06:31:32;31.88;;;16.10;;
22240;SDS011;11289;52.524;13.694;2022-12-07T06:34:01;30.65;;;14.80;;
22240;SDS011;11289;52.524;13.694;2022-12-07T06:36:28;26.92;;;14.07;;
22240;SDS011;11289;52.524;13.694;2022-12-07T06:38:54;30.80;;;17.10;;
22240;SDS011;11289;52.524;13.694;2022-12-07T06:41:20;28.33;;;16.92;;
22240;SDS011;11289;52.524;13.694;2022-12-07T06:43:45;34.90;;;18.30;;
22240;SDS011;11289;52.524;13.694;2022-12-07T06:46:11;31.60;;;17.25;;
22240;SDS011;11289;52.524;13.694;2022-12-07T06:48:36;31.35;;;18.52;;
22240;SDS011;11289;52.524;13.694;2022-12-07T06:51:02;30.40;;;16.70;;
22240;SDS011;11289;52.524;13.694;2022-12-07T06:53:27;27.15;;;16.50;;
22240;SDS011;11289;52.524;13.694;2022-12-07T06:55:52;30.05;;;16.52;;
22240;SDS011;11289;52.524;13.694;2022-12-07T06:58:18;33.60;;;17.00;;
22240;SDS011;11289;52.524;13.694;2022-12-07T07:00:44;26.20;;;15.23;;
22240;SDS011;11289;52.524;13.694;2022-12-07T07:03:10;30.70;;;15.50;;
22240;SDS011;11289;52.524;13.694;2022-12-07T07:05:35;28.52;;;16.33;;
22240;SDS011;11289;52.524;13.694;2022-12-07T07:08:01;27.75;;;15.00;;
22240;SDS011;11289;52.524;13.694;2022-12-07T07:10:27;29.60;;;16.10;;
22240;SDS011;11289;52.524;13.694;2022-12-07T07:12:53;35.35;;;19.70;;
22240;SDS011;11289;52.524;13.694;2022-12-07T07:15:18;36.97;;;20.10;;
22240;SDS011;11289;52.524;13.694;2022-12-07T07:17:43;56.65;;;29.35;;
22240;SDS011;11289;52.524;13.694;2022-12-07T07:20:09;55.78;;;25.77;;
22240;SDS011;11289;52.524;13.694;2022-12-07T07:22:35;49.60;;;28.77;;
22240;SDS011;11289;52.524;13.694;2022-12-07T07:25:00;65.15;;;30.58;;
22240;SDS011;11289;52.524;13.694;2022-12-07T07:27:25;56.85;;;28.83;;
22240;SDS011;11289;52.524;13.694;2022-12-07T07:29:51;60.53;;;31.38;;
22240;SDS011;11289;52.524;13.694;2022-12-07T07:32:16;69.20;;;40.75;;
22240;SDS011;11289;52.524;13.694;2022-12-07T07:34:41;35.28;;;22.27;;
22240;SDS011;11289;52.524;13.694;2022-12-07T07:37:07;33.70;;;21.27;;
22240;SDS011;11289;52.524;13.694;2022-12-07T07:39:32;32.30;;;18.35;;
22240;SDS011;11289;52.524;13.694;2022-12-07T07:41:57;29.92;;;17.33;;
22240;SDS011;11289;52.524;13.694;2022-12-07T07:44:23;31.88;;;18.90;;
22240;SDS011;11289;52.524;13.694;2022-12-07T07:46:48;29.50;;;19.10;;
22240;SDS011;11289;52.524;13.694;2022-12-07T07:49:14;29.58;;;17.55;;
22240;SDS011;11289;52.524;13.694;2022-12-07T07:51:39;26.30;;;15.77;;
22240;SDS011;11289;52.524;13.694;2022-12-07T07:54:04;31.77;;;16.38;;
22240;SDS011;11289;52.524;13.694;2022-12-07T07:56:30;30.10;;;16.48;;
22240;SDS011;11289;52.524;13.694;2022-12-07T07:58:55;27.05;;;15.80;;
22240;SDS011;11289;52.524;13.694;2022-12-07T08:01:21;26.73;;;14.95;;
22240;SDS011;11289;52.524;13.694;2022-12-07T08:03:46;27.23;;;13.98;;
22240;SDS011;11289;52.524;13.694;2022-12-07T08:06:12;30.48;;;14.98;;
22240;SDS011;11289;52.524;13.694;2022-12-07T08:08:37;25.02;;;13.93;;
22240;SDS011;11289;52.524;13.694;2022-12-07T08:11:06;25.77;;;12.10;;
22240;SDS011;11289;52.524;13.694;2022-12-07T08:13:33;18.98;;;11.10;;
22240;SDS011;11289;52.524;13.694;2022-12-07T08:15:58;18.33;;;10.48;;
22240;SDS011;11289;52.524;13.694;2022-12-07T08:18:29;23.55;;;10.77;;
22240;SDS011;11289;52.524;13.694;2022-12-07T08:21:01;20.70;;;10.38;;
22240;SDS011;11289;52.524;13.694;2022-12-07T08:23:27;18.10;;;9.48;;
22240;SDS011;11289;52.524;13.694;2022-12-07T08:25:52;17.77;;;9.75;;
22240;SDS011;11289;52.524;13.694;2022-12-07T08:28:18;18.35;;;9.27;;
22240;SDS011;11289;52.524;13.694;2022-12-07T08:30:43;16.45;;;8.07;;
22240;SDS011;11289;52.524;13.694;2022-12-07T08:33:09;17.15;;;8.60;;
22240;SDS011;11289;52.524;13.694;2022-12-07T08:35:35;14.93;;;7.18;;
22240;SDS011;11289;52.524;13.694;2022-12-07T08:38:01;16.33;;;7.82;;
22240;SDS011;11289;52.524;13.694;2022-12-07T08:40:27;15.85;;;7.88;;
22240;SDS011;11289;52.524;13.694;2022-12-07T08:42:53;14.32;;;7.50;;
22240;SDS011;11289;52.524;13.694;2022-12-07T08:45:19;14.07;;;7.55;;
22240;SDS011;11289;52.524;13.694;2022-12-07T08:47:48;16.92;;;6.85;;
22240;SDS011;11289;52.524;13.694;2022-12-07T08:50:17;12.10;;;7.18;;
22240;SDS011;11289;52.524;13.694;2022-12-07T08:52:43;14.35;;;8.23;;
22240;SDS011;11289;52.524;13.694;2022-12-07T08:55:09;13.73;;;7.97;;
22240;SDS011;11289;52.524;13.694;2022-12-07T08:57:36;17.70;;;7.97;;
22240;SDS011;11289;52.524;13.694;2022-12-07T09:00:03;13.93;;;7.07;;
22240;SDS011;11289;52.524;13.694;2022-12-07T09:02:30;12.88;;;6.30;;
22240;SDS011;11289;52.524;13.694;2022-12-07T09:04:56;11.57;;;5.88;;
22240;SDS011;11289;52.524;13.694;2022-12-07T09:07:21;13.05;;;7.00;;
22240;SDS011;11289;52.524;13.694;2022-12-07T09:09:47;11.55;;;7.13;;
22240;SDS011;11289;52.524;13.694;2022-12-07T09:12:13;10.07;;;6.22;;
22240;SDS011;11289;52.524;13.694;2022-12-07T09:14:38;8.45;;;4.95;;
22240;SDS011;11289;52.524;13.694;2022-12-07T09:17:07;6.82;;;4.10;;
22240;SDS011;11289;52.524;13.694;2022-12-07T09:19:33;6.97;;;4.13;;
22240;SDS011;11289;52.524;13.694;2022-12-07T09:21:58;6.00;;;3.65;;
22240;SDS011;11289;52.524;13.694;2022-12-07T09:24:24;8.30;;;3.85;;
22240;SDS011;11289;52.524;13.694;2022-12-07T09:26:49;8.85;;;4.25;;
22240;SDS011;11289;52.524;13.694;2022-12-07T09:29:14;5.35;;;3.58;;
22240;SDS011;11289;52.524;13.694;2022-12-07T09:31:40;5.32;;;3.15;;
22240;SDS011;11289;52.524;13.694;2022-12-07T09:34:05;5.38;;;3.22;;
22240;SDS011;11289;52.524;13.694;2022-12-07T09:36:32;6.22;;;3.67;;
22240;SDS011;11289;52.524;13.694;2022-12-07T09:38:58;6.53;;;3.53;;
22240;SDS011;11289;52.524;13.694;2022-12-07T09:41:24;5.82;;;3.65;;
22240;SDS011;11289;52.524;13.694;2022-12-07T09:43:52;4.18;;;3.20;;
22240;SDS011;11289;52.524;13.694;2022-12-07T09:46:23;6.25;;;3.22;;
22240;SDS011;11289;52.524;13.694;2022-12-07T09:48:49;4.63;;;2.70;;
22240;SDS011;11289;52.524;13.694;2022-12-07T09:51:19;5.18;;;2.70;;
22240;SDS011;11289;52.524;13.694;2022-12-07T09:53:47;3.30;;;2.10;;
22240;SDS011;11289;52.524;13.694;2022-12-07T09:56:13;3.88;;;2.70;;
22240;SDS011;11289;52.524;13.694;2022-12-07T09:58:40;4.88;;;2.85;;
22240;SDS011;11289;52.524;13.694;2022-12-07T10:03:32;4.65;;;2.88;;
22240;SDS011;11289;52.524;13.694;2022-12-07T10:05:59;13.43;;;7.28;;
22240;SDS011;11289;52.524;13.694;2022-12-07T10:08:25;6.00;;;3.67;;
22240;SDS011;11289;52.524;13.694;2022-12-07T10:10:52;4.03;;;2.63;;
22240;SDS011;11289;52.524;13.694;2022-12-07T10:13:20;3.65;;;2.60;;
22240;SDS011;11289;52.524;13.694;2022-12-07T10:18:19;3.83;;;2.50;;
22240;SDS011;11289;52.524;13.694;2022-12-07T10:21:27;4.72;;;2.38;;
22240;SDS011;11289;52.524;13.694;2022-12-07T10:24:13;2.92;;;2.03;;
22240;SDS011;11289;52.524;13.694;2022-12-07T10:29:18;3.95;;;2.38;;
22240;SDS011;11289;52.524;13.694;2022-12-07T10:31:49;4.90;;;2.25;;
22240;SDS011;11289;52.524;13.694;2022-12-07T10:34:33;4.95;;;2.30;;
22240;SDS011;11289;52.524;13.694;2022-12-07T10:37:15;3.45;;;2.45;;
22240;SDS011;11289;52.524;13.694;2022-12-07T10:42:22;3.33;;;1.80;;
22240;SDS011;11289;52.524;13.694;2022-12-07T10:44:50;3.65;;;2.30;;
22240;SDS011;11289;52.524;13.694;2022-12-07T10:53:58;3.78;;;2.03;;
22240;SDS011;11289;52.524;13.694;2022-12-07T10:56:44;2.97;;;1.70;;
22240;SDS011;11289;52.524;13.694;2022-12-07T11:11:16;3.13;;;2.28;;
22240;SDS011;11289;52.524;13.694;2022-12-07T11:16:59;6.57;;;2.53;;
22240;SDS011;11289;52.524;13.694;2022-12-07T11:22:13;3.97;;;2.22;;
22240;SDS011;11289;52.524;13.694;2022-12-07T11:30:13;6.07;;;2.42;;
22240;SDS011;11289;52.524;13.694;2022-12-07T11:33:07;7.25;;;2.80;;
22240;SDS011;11289;52.524;13.694;2022-12-07T11:35:45;4.80;;;2.15;;
22240;SDS011;11289;52.524;13.694;2022-12-07T11:38:24;7.38;;;2.97;;
22240;SDS011;11289;52.524;13.694;2022-12-07T11:41:00;5.95;;;2.50;;
22240;SDS011;11289;52.524;13.694;2022-12-07T11:43:37;4.15;;;2.80;;
22240;SDS011;11289;52.524;13.694;2022-12-07T11:46:19;4.00;;;2.35;;
22240;SDS011;11289;52.524;13.694;2022-12-07T11:48:50;8.40;;;2.50;;
22240;SDS011;11289;52.524;13.694;2022-12-07T11:51:36;5.22;;;2.22;;
22240;SDS011;11289;52.524;13.694;2022-12-07T11:54:05;3.30;;;2.10;;
22240;SDS011;11289;52.524;13.694;2022-12-07T11:56:39;4.90;;;2.25;;
22240;SDS011;11289;52.524;13.694;2022-12-07T11:59:10;5.18;;;2.58;;
22240;SDS011;11289;52.524;13.694;2022-12-07T12:04:31;4.07;;;2.60;;
22240;SDS011;11289;52.524;13.694;2022-12-07T12:07:24;6.35;;;3.08;;
22240;SDS011;11289;52.524;13.694;2022-12-07T12:15:13;9.32;;;2.97;;
22240;SDS011;11289;52.524;13.694;2022-12-07T12:18:12;5.13;;;3.10;;
22240;SDS011;11289;52.524;13.694;2022-12-07T12:23:14;5.45;;;3.50;;
22240;SDS011;11289;52.524;13.694;2022-12-07T12:25:57;4.00;;;2.83;;
22240;SDS011;11289;52.524;13.694;2022-12-07T12:31:13;5.55;;;3.45;;
22240;SDS011;11289;52.524;13.694;2022-12-07T12:34:01;7.35;;;3.78;;
22240;SDS011;11289;52.524;13.694;2022-12-07T12:47:00;5.45;;;3.30;;
22240;SDS011;11289;52.524;13.694;2022-12-07T12:49:40;6.00;;;3.47;;
22240;SDS011;11289;52.524;13.694;2022-12-07T12:54:57;6.15;;;2.97;;
22240;SDS011;11289;52.524;13.694;2022-12-07T12:57:29;5.40;;;2.80;;
22240;SDS011;11289;52.524;13.694;2022-12-07T12:59:59;7.15;;;3.13;;
22240;SDS011;11289;52.524;13.694;2022-12-07T13:02:28;6.35;;;3.20;;
22240;SDS011;11289;52.524;13.694;2022-12-07T13:04:58;4.93;;;2.58;;
22240;SDS011;11289;52.524;13.694;2022-12-07T13:15:34;17.88;;;6.07;;
22240;SDS011;11289;52.524;13.694;2022-12-07T13:18:03;11.55;;;3.28;;
22240;SDS011;11289;52.524;13.694;2022-12-07T13:20:47;8.52;;;3.05;;
22240;SDS011;11289;52.524;13.694;2022-12-07T13:23:16;7.00;;;3.08;;
22240;SDS011;11289;52.524;13.694;2022-12-07T13:26:09;13.02;;;3.78;;
22240;SDS011;11289;52.524;13.694;2022-12-07T13:28:51;6.90;;;2.65;;
22240;SDS011;11289;52.524;13.694;2022-12-07T13:37:43;3.67;;;2.22;;
22240;SDS011;11289;52.524;13.694;2022-12-07T13:39:55;5.55;;;2.85;;
22240;SDS011;11289;52.524;13.694;2022-12-07T13:42:30;4.40;;;2.22;;
22240;SDS011;11289;52.524;13.694;2022-12-07T13:44:58;4.72;;;2.30;;
22240;SDS011;11289;52.524;13.694;2022-12-07T13:50:22;5.15;;;2.58;;
22240;SDS011;11289;52.524;13.694;2022-12-07T13:52:54;6.93;;;2.40;;
22240;SDS011;11289;52.524;13.694;2022-12-07T13:55:21;7.20;;;2.15;;
22240;SDS011;11289;52.524;13.694;2022-12-07T13:57:47;8.77;;;2.40;;
22240;SDS011;11289;52.524;13.694;2022-12-07T14:00:18;6.20;;;2.05;;
22240;SDS011;11289;52.524;13.694;2022-12-07T14:06:02;5.47;;;1.90;;
22240;SDS011;11289;52.524;13.694;2022-12-07T14:08:30;3.58;;;1.83;;
22240;SDS011;11289;52.524;13.694;2022-12-07T14:10:56;5.78;;;1.77;;
22240;SDS011;11289;52.524;13.694;2022-12-07T14:16:00;5.40;;;2.00;;
22240;SDS011;11289;52.524;13.694;2022-12-07T14:23:30;6.60;;;1.80;;
22240;SDS011;11289;52.524;13.694;2022-12-07T14:26:04;9.45;;;2.72;;
22240;SDS011;11289;52.524;13.694;2022-12-07T14:28:41;5.05;;;2.45;;
22240;SDS011;11289;52.524;13.694;2022-12-07T14:31:11;4.93;;;1.75;;
22240;SDS011;11289;52.524;13.694;2022-12-07T14:33:42;5.97;;;1.90;;
22240;SDS011;11289;52.524;13.694;2022-12-07T14:36:11;8.35;;;2.15;;
22240;SDS011;11289;52.524;13.694;2022-12-07T14:38:38;4.18;;;1.90;;
22240;SDS011;11289;52.524;13.694;2022-12-07T14:41:04;8.23;;;1.95;;
22240;SDS011;11289;52.524;13.694;2022-12-07T14:43:50;5.10;;;1.80;;
22240;SDS011;11289;52.524;13.694;2022-12-07T14:46:15;7.97;;;2.20;;
22240;SDS011;11289;52.524;13.694;2022-12-07T14:48:40;8.13;;;1.70;;
22240;SDS011;11289;52.524;13.694;2022-12-07T14:51:07;5.45;;;2.13;;
22240;SDS011;11289;52.524;13.694;2022-12-07T14:53:39;6.90;;;2.30;;
22240;SDS011;11289;52.524;13.694;2022-12-07T14:56:07;6.45;;;2.20;;
22240;SDS011;11289;52.524;13.694;2022-12-07T14:58:34;9.13;;;3.22;;
22240;SDS011;11289;52.524;13.694;2022-12-07T15:02:06;4.95;;;1.90;;
22240;SDS011;11289;52.524;13.694;2022-12-07T15:04:37;4.38;;;2.17;;
22240;SDS011;11289;52.524;13.694;2022-12-07T15:07:26;5.10;;;2.28;;
22240;SDS011;11289;52.524;13.694;2022-12-07T15:10:15;6.25;;;2.50;;
22240;SDS011;11289;52.524;13.694;2022-12-07T15:12:47;6.20;;;3.03;;
22240;SDS011;11289;52.524;13.694;2022-12-07T15:17:42;4.00;;;2.15;;
22240;SDS011;11289;52.524;13.694;2022-12-07T15:20:15;6.43;;;2.83;;
22240;SDS011;11289;52.524;13.694;2022-12-07T15:23:22;4.30;;;2.45;;
22240;SDS011;11289;52.524;13.694;2022-12-07T15:25:48;4.80;;;2.50;;
22240;SDS011;11289;52.524;13.694;2022-12-07T15:28:14;7.70;;;2.60;;
22240;SDS011;11289;52.524;13.694;2022-12-07T15:30:41;8.98;;;1.80;;
22240;SDS011;11289;52.524;13.694;2022-12-07T15:33:11;6.30;;;2.30;;
22240;SDS011;11289;52.524;13.694;2022-12-07T15:35:39;6.30;;;2.17;;
22240;SDS011;11289;52.524;13.694;2022-12-07T15:38:05;7.25;;;1.73;;
22240;SDS011;11289;52.524;13.694;2022-12-07T15:40:30;5.53;;;2.30;;
22240;SDS011;11289;52.524;13.694;2022-12-07T15:42:56;5.68;;;1.90;;
22240;SDS011;11289;52.524;13.694;2022-12-07T15:45:22;3.80;;;2.10;;
22240;SDS011;11289;52.524;13.694;2022-12-07T15:47:47;7.38;;;2.40;;
22240;SDS011;11289;52.524;13.694;2022-12-07T15:50:13;6.15;;;2.05;;
22240;SDS011;11289;52.524;13.694;2022-12-07T15:52:40;8.23;;;2.15;;
22240;SDS011;11289;52.524;13.694;2022-12-07T15:55:07;3.53;;;1.90;;
22240;SDS011;11289;52.524;13.694;2022-12-07T15:57:37;4.05;;;1.38;;
22240;SDS011;11289;52.524;13.694;2022-12-07T16:00:04;7.20;;;1.92;;
22240;SDS011;11289;52.524;13.694;2022-12-07T16:02:30;5.97;;;1.98;;
22240;SDS011;11289;52.524;13.694;2022-12-07T16:04:56;4.93;;;1.95;;
22240;SDS011;11289;52.524;13.694;2022-12-07T16:07:22;8.10;;;3.15;;
22240;SDS011;11289;52.524;13.694;2022-12-07T16:10:08;10.35;;;2.20;;
22240;SDS011;11289;52.524;13.694;2022-12-07T16:16:22;5.05;;;2.10;;
22240;SDS011;11289;52.524;13.694;2022-12-07T16:19:14;7.72;;;2.75;;
22240;SDS011;11289;52.524;13.694;2022-12-07T16:21:41;7.25;;;2.17;;
22240;SDS011;11289;52.524;13.694;2022-12-07T16:24:10;7.45;;;2.25;;
22240;SDS011;11289;52.524;13.694;2022-12-07T16:26:37;6.80;;;2.15;;
22240;SDS011;11289;52.524;13.694;2022-12-07T16:29:02;7.47;;;1.88;;
22240;SDS011;11289;52.524;13.694;2022-12-07T16:31:29;3.75;;;2.03;;
22240;SDS011;11289;52.524;13.694;2022-12-07T16:33:55;6.20;;;1.30;;
22240;SDS011;11289;52.524;13.694;2022-12-07T16:36:22;1.38;;;1.27;;
22240;SDS011;11289;52.524;13.694;2022-12-07T16:38:50;1.40;;;1.00;;
22240;SDS011;11289;52.524;13.694;2022-12-07T16:41:15;3.00;;;1.15;;
22240;SDS011;11289;52.524;13.694;2022-12-07T16:43:41;2.08;;;1.17;;
22240;SDS011;11289;52.524;13.694;2022-12-07T16:46:06;3.35;;;1.25;;
22240;SDS011;11289;52.524;13.694;2022-12-07T16:48:35;2.90;;;1.10;;
22240;SDS011;11289;52.524;13.694;2022-12-07T16:51:03;4.68;;;1.67;;
22240;SDS011;11289;52.524;13.694;2022-12-07T16:53:30;7.50;;;1.63;;
22240;SDS011;11289;52.524;13.694;2022-12-07T16:55:55;4.55;;;1.70;;
22240;SDS011;11289;52.524;13.694;2022-12-07T16:58:20;9.63;;;2.05;;
22240;SDS011;11289;52.524;13.694;2022-12-07T17:00:46;4.90;;;2.22;;
22240;SDS011;11289;52.524;13.694;2022-12-07T17:03:11;6.05;;;2.08;;
22240;SDS011;11289;52.524;13.694;2022-12-07T17:05:41;6.97;;;3.60;;